Timeline UpdatesTrip UpdatesNews PostsPvt PostsTravel TipsAdmin PostsConv PostsFollowed PostsChat RequestsBlog PostsPNR Posts

Disclaimer
Search
 
 
Tue Sep 2, 2014 00:09:45 ISTHomeTrainsΣChainsAtlasPNRForumGalleryNewsFAQTripsMembersLoginFeedback
No Recent News for this Train
Other Trains in the News **new
Latest...
Diverted via Dankuni and will stop at Kamarkundu from 31/1/14-7/2/14 #979555
Thu Jan 30, 2014 (07:14PM)
⇐ Return Journey: Train# 53131

53132/Muzaffarpur Sealdah Passenger (UnReserved)

OLD Time-Table. New TT will soon be available.
Sep 11 2013 (10:52PM)
Change Departure Station:
Change Arrival Station:
Post a Train Travel TipPost a Train Travel Tip **new
Post a Comment/Question/Picture/VideoPost a Comment/Question/Picture/Video
Pantry/Catering
✕ NO Pantry Car
✕ NO Catering
RSA - Rake Sharing
Rake/Coach Composition
ENG-SLR-GEN-GEN-GEN-GEN-GEN-GEN-GEN-SLR
Loco
WDM-2/WDM-3A from MFP to BJU, then, ASN WAM-4/WAG-5A/WAG-5HA from BJU...
Read more...
to SDAH
News    PNR    Forum    Time-Table    Availability    Fare Chart    Map    Arr/Dep History    Trips    Gallery    ΣChains    X/O    Timeline    
Travel Time: 5h 5m    16 halts    Distance: 213 km    Avg Speed: 41 km/hr
Type: Passenger
Zone: ER/Eastern
Departs @ 21:35
Platform# ???
SMTWTFS
Asansol Junction/ASN 
Arrives @ 02:40 +1 night
Platform# ???
SMTWTFS
Dum Dum Junction/DDJ 

16 halts. 52 intermediate Stations between Asansol Junction and Dum Dum Junction

Show ALL intermediate Stations  

#CodeStation NameX/OArrivesAvgDepartsAvgHaltPFDay#KmSpeedElevZoneAddress
1MFPMuzaffarpur Junction (6)  -07:45---1-356.53257mECRMuzaffarpur, Bihar
2NRPANarayanpur Anant (3)X  07:54-07:55-1m--1-351.74356mECRMuzaffarpur, Bihar
3SLTSilaut (2)  08:03-08:04-1m--1-346.05857mECRMuzaffarpur, Bihar
4SIHOSiho (2)  08:12-08:13-1m--1-338.25153mECRNational Highway 28, Bihar
5DOLDholi (2)X  08:21-08:22-1m--1-331.440 ECRDistt. Muzaffarpur, Bihar
6DUBHDubaha (2)  08:31-08:32-1m--1-325.34955mECRDubha Station, Bihar
7KRBPKhudiram B Pusa (2)  08:41-08:42-1m--1-318.04952mECRDistt. Samastipur, Bihar
8KPGMKarpurigram (3)X  08:51-08:52-1m--1-310.72151mECRState Highway 49, Bihar
9SPJSamastipur Junction (9)X  09:10-09:20-10m--1-304.44955mECRSamastipur, Bihar
10UJPUjiarpur (2)X  09:31-09:32-1m--1-295.34751mECRSamastipur, Bihar
11NAZJNazirGanj (2)  09:40-09:41-1m--1-289.14751mECRNazirGanj, Bihar
12DSSDalsingh Sarai (2)X  09:51-09:52-1m21-281.227 ECR06278-221238, Bihar
13STJTSathajagat (2)  10:02-10:03-1m--1-276.62449mECRSathajagat, Bihar
14BCABachwara Junction (3)  10:19-10:20-1m--1-270.22449mECRBegusarai, Bihar
15TGATeghra (3)X  10:42-10:43-1m--1-261.31048mECRBegusarai, Bihar
16BJUBarauni Junction (9)11:25-11:50-25m--1-253.92649mECRBegusarai, Bihar
17SAEDinkar Gram Simaria (3)  12:04-12:05-1m--1-247.919228mECRBegusarai, Bihar
18RJORajendra Pul (1)  12:14-12:15-1m11-245.02849mECRSimaria, Bihar
19HTZUHathidah Upper (1)  12:22-12:24-2m11-241.71451mECRMurarpur, Bihar
20RDUMRampur Dumra (3)  13:14-13:15-1m--1-229.93746mECRNational Highway 80, Bihar
21BRYABarhiya (3)  13:24-13:25-1m--1-224.32047mECRBarahiya, Bihar
22MKBMankathaX  13:53-13:55-2m--1-214.93347mECRNational Highway 80, Bihar
23LKRLuckeesarai Junction (2)X  14:05-14:07-2m--1-209.3652mECRLakhisarai, Bihar
24KIULKiul Junction (5)  14:20-14:30-10m--1-207.93353mECRDist. Lakhisarai, Bihar
25BSQPBansipur  14:38-14:40-2m--1-203.61753mECRKiul, Bihar
26MNPMananpur (2)  14:49-14:50-1m--1-201.02257mECRState Highway 18, Bihar
27BFMBhaluiX  14:57-14:58-1m--1-198.49756mECRState Highway 18, Bihar
28JMUJamui (3)  15:09-15:10-1m--1-180.61581mECRState Highway 72, Bihar
29CUXChauraX  15:20-15:21-1m--1-178.18079mECRState Highway 18, Bihar
30GHRGidhaur (2)  15:30-15:31-1m--1-166.137106mECRState Highway 18, Bihar
31DPXDadpurX  15:38-15:39-1m--1-161.820116mECRDadpur, Bihar
32JAJJhajha (4)  16:00-16:10-10m--1-154.644143mECRJhajha, Bihar
33NRGONarganjo Halt (2)X  16:21-16:22-1m--1-146.629188mERState Highway 18, Bihar
34STLSimultala (2)X  16:44-16:45-1m--1-135.947247mERSimultala, Bihar
35LHBLahabon (3)X  16:58-16:59-1m--1-125.846259mERDeoghar, Jharkhand
36JSMEJasidih Junction (5)  17:19-17:22-3m--1-110.555271mERJasidih, Jharkhand
37KBQKumrabad Rohini (2)X  17:29-17:30-1m--1-104.273231mERKumrabad Rohi, Jharkhand
38SNQSankarpur (2)X  17:34-17:35-1m--1-99.341242mERDeoghar, Jharkhand
39MUWMathurapur (2)  17:44-17:45-1m--1-93.144261mERDeoghar, Jharkhand
40MDPMadhupur Junction (4)XO  18:01-18:58-57m--1-81.559254mER06432-224478, Jharkhand
41JRWJoramow  19:08-19:09-1m--1-71.646208mERBarrage on Ajoy River, Jharkhand
42MNCMadankata (2)X  19:16-19:17-1m--1-66.244208mERBarrage on Ajoy River, Jharkhand
43VDSVidyasagar (2)X  19:29-19:30-1m--1-57.363250mERJamtara, Jharkhand
44JMTJamtara (2)  19:47-19:48-1m21-39.445201mERJamtara, Jharkhand
45CRJChittaranjan (3)X  20:07-20:10-3m21-25.146182mERMihijam, Jharkhand
46RNPRRupnarayanpur (3)X  20:16-20:17-1m--1-20.553191mERChittaranjan, West Bengal
47SLSSalanpur (2)X  20:25-20:26-1m--1-13.49156mERSalanpur Station, West Bengal
48STNSitarampur Junction (5)X  20:58-21:00-2m--1-8.837139mERG T Rd Before Asansol, West Bengal
49BCQBarachak Junction (4)X  21:06-21:07-1m--1-5.138127mERdist - bardhaman, West Bengal
50ASN»Asansol Junction (7)»X  21:15-21:35-20m--10.064113mERDist - bardhaman, West Bengal
51RNGRaniGanj (4)XO  21:52-21:56-4m--118.11392mERRaniganj, West Bengal
52UDLAndal Junction (6)  22:30-22:33-3m--125.46286mERAndal, West Bengal
53OYRWaria (4)X  22:41-22:42-1m--133.64172mERDurgapur, West Bengal
54DGRDurgapur (5)X  22:55-23:00-5m--142.45571mERDurgapur, West Bengal
55PANPanagarh (4)X  23:17-23:18-1m--158.16570mERKaksa, West Bengal
56KANKhana Junction (5)X  23:50-23:51-1m--192.96542mERDist - Bardhaman, West Bengal
57BWNBarddhaman Junction (8)X  00:03-00:08-5m--2106.07034mERDist - Barddhaman, West Bengal
58BDCBandel Junction (7)  01:06-01:11-5m--2173.23314mERdist - HOOGHLY, West Bengal
59HYGHooghly Ghat (2)  01:18-01:19-1m--2177.01417mERdist - Hooghly, West Bengal
60GFAEGarifa (2)  01:25-01:26-1m--2178.51915mERState Highway 1, West Bengal
61NHNaihati Junction (5)  01:36-01:44-8m--2181.63415mERdist - North 24 paraganas - 743165, West Bengal
62KNRKankinara (3)  01:49-01:51-2m--2184.557 ERState Highway 1, West Bengal
63SNRShyamnagar (4)  01:56-01:57-1m--2189.24916mERDist - North 24 paraganas, West Bengal
64IPIchhapur (4)  02:01-02:02-1m--2192.54412mERIchapur, West Bengal
65BPBarrackpore (5)  02:08-02:16-8m22196.93212mERDist - 24 paraganas (N), West Bengal
66TGHTitagarh (4)  02:20-02:22-2m42199.14510mERDist - 24 paraganas ( north ), West Bengal
67DDJ•Dum Dum Junction (5)•  02:40-02:41-1m--2212.6910mERKolkata - 700028, West Bengal
68SDAHKolkata Sealdah (20)  03:25--72219.2-8mERPh : 033-23503535 (For North: APC Roy Road) Kolkata 700014, West Bengal
Scroll to Top
Scroll to Bottom